sensor_id;sensor_type;location;lat;lon;timestamp;P1;durP1;ratioP1;P2;durP2;ratioP2
51020;SDS011;38907;45.562;8.856;2024-03-02T00:04:51;2.78;;;2.50;;
51020;SDS011;38907;45.562;8.856;2024-03-02T00:09:53;3.10;;;2.65;;
51020;SDS011;38907;45.562;8.856;2024-03-02T00:14:56;2.92;;;2.50;;
51020;SDS011;38907;45.562;8.856;2024-03-02T00:20:02;3.03;;;2.72;;
51020;SDS011;38907;45.562;8.856;2024-03-02T00:25:05;3.10;;;2.27;;
51020;SDS011;38907;45.562;8.856;2024-03-02T00:35:34;4.22;;;3.33;;
51020;SDS011;38907;45.562;8.856;2024-03-02T00:40:35;4.63;;;3.47;;
51020;SDS011;38907;45.562;8.856;2024-03-02T00:45:40;4.85;;;4.07;;
51020;SDS011;38907;45.562;8.856;2024-03-02T00:50:42;5.15;;;4.65;;
51020;SDS011;38907;45.562;8.856;2024-03-02T00:55:44;4.90;;;4.40;;
51020;SDS011;38907;45.562;8.856;2024-03-02T01:00:49;5.05;;;4.55;;
51020;SDS011;38907;45.562;8.856;2024-03-02T01:05:51;5.90;;;4.60;;
51020;SDS011;38907;45.562;8.856;2024-03-02T01:10:52;6.15;;;5.07;;
51020;SDS011;38907;45.562;8.856;2024-03-02T01:15:56;4.15;;;3.75;;
51020;SDS011;38907;45.562;8.856;2024-03-02T01:20:58;5.07;;;4.60;;
51020;SDS011;38907;45.562;8.856;2024-03-02T01:26:00;4.68;;;4.10;;
51020;SDS011;38907;45.562;8.856;2024-03-02T01:31:03;5.40;;;3.95;;
51020;SDS011;38907;45.562;8.856;2024-03-02T01:36:05;5.57;;;3.90;;
51020;SDS011;38907;45.562;8.856;2024-03-02T01:41:08;5.60;;;4.93;;
51020;SDS011;38907;45.562;8.856;2024-03-02T01:46:11;5.55;;;4.75;;
51020;SDS011;38907;45.562;8.856;2024-03-02T01:51:13;5.22;;;4.07;;
51020;SDS011;38907;45.562;8.856;2024-03-02T01:56:15;5.07;;;3.95;;
51020;SDS011;38907;45.562;8.856;2024-03-02T02:01:18;4.53;;;3.58;;
51020;SDS011;38907;45.562;8.856;2024-03-02T02:06:20;3.40;;;3.10;;
51020;SDS011;38907;45.562;8.856;2024-03-02T02:11:22;3.67;;;2.78;;
51020;SDS011;38907;45.562;8.856;2024-03-02T02:16:25;3.08;;;2.38;;
51020;SDS011;38907;45.562;8.856;2024-03-02T02:21:29;3.42;;;2.33;;
51020;SDS011;38907;45.562;8.856;2024-03-02T02:26:30;3.40;;;2.20;;
51020;SDS011;38907;45.562;8.856;2024-03-02T02:31:36;2.88;;;2.00;;
51020;SDS011;38907;45.562;8.856;2024-03-02T02:36:40;2.08;;;1.88;;
51020;SDS011;38907;45.562;8.856;2024-03-02T02:41:43;3.53;;;2.28;;
51020;SDS011;38907;45.562;8.856;2024-03-02T02:46:44;4.05;;;2.90;;
51020;SDS011;38907;45.562;8.856;2024-03-02T02:51:48;3.60;;;2.88;;
51020;SDS011;38907;45.562;8.856;2024-03-02T02:56:49;3.42;;;2.55;;
51020;SDS011;38907;45.562;8.856;2024-03-02T03:01:51;3.25;;;2.70;;
51020;SDS011;38907;45.562;8.856;2024-03-02T03:06:54;5.57;;;2.53;;
51020;SDS011;38907;45.562;8.856;2024-03-02T03:11:56;3.78;;;2.40;;
51020;SDS011;38907;45.562;8.856;2024-03-02T03:16:58;3.00;;;2.00;;
51020;SDS011;38907;45.562;8.856;2024-03-02T03:22:02;2.85;;;1.90;;
51020;SDS011;38907;45.562;8.856;2024-03-02T03:27:04;2.35;;;1.38;;
51020;SDS011;38907;45.562;8.856;2024-03-02T03:32:06;3.35;;;1.25;;
51020;SDS011;38907;45.562;8.856;2024-03-02T03:37:10;2.10;;;1.13;;
51020;SDS011;38907;45.562;8.856;2024-03-02T03:42:12;1.20;;;1.10;;
51020;SDS011;38907;45.562;8.856;2024-03-02T03:47:13;2.13;;;1.10;;
51020;SDS011;38907;45.562;8.856;2024-03-02T03:52:16;1.00;;;0.90;;
51020;SDS011;38907;45.562;8.856;2024-03-02T03:57:18;1.85;;;0.75;;
51020;SDS011;38907;45.562;8.856;2024-03-02T04:02:20;2.30;;;0.70;;
51020;SDS011;38907;45.562;8.856;2024-03-02T04:07:26;3.17;;;0.90;;
51020;SDS011;38907;45.562;8.856;2024-03-02T04:12:27;1.75;;;1.17;;
51020;SDS011;38907;45.562;8.856;2024-03-02T04:17:31;2.40;;;1.50;;
51020;SDS011;38907;45.562;8.856;2024-03-02T04:22:34;2.78;;;1.30;;
51020;SDS011;38907;45.562;8.856;2024-03-02T04:27:36;2.70;;;1.55;;
51020;SDS011;38907;45.562;8.856;2024-03-02T04:32:38;3.90;;;1.65;;
51020;SDS011;38907;45.562;8.856;2024-03-02T04:37:41;2.50;;;2.00;;
51020;SDS011;38907;45.562;8.856;2024-03-02T04:42:43;1.90;;;1.45;;
51020;SDS011;38907;45.562;8.856;2024-03-02T04:47:45;2.25;;;1.70;;
51020;SDS011;38907;45.562;8.856;2024-03-02T04:52:48;2.38;;;1.50;;
51020;SDS011;38907;45.562;8.856;2024-03-02T04:57:50;2.20;;;1.48;;
51020;SDS011;38907;45.562;8.856;2024-03-02T05:02:54;2.17;;;1.45;;
51020;SDS011;38907;45.562;8.856;2024-03-02T05:07:57;2.47;;;1.65;;
51020;SDS011;38907;45.562;8.856;2024-03-02T05:12:59;1.85;;;1.67;;
51020;SDS011;38907;45.562;8.856;2024-03-02T05:18:02;2.90;;;1.58;;
51020;SDS011;38907;45.562;8.856;2024-03-02T05:23:06;3.70;;;2.08;;
51020;SDS011;38907;45.562;8.856;2024-03-02T05:28:08;4.40;;;2.10;;
51020;SDS011;38907;45.562;8.856;2024-03-02T05:33:10;3.67;;;2.33;;
51020;SDS011;38907;45.562;8.856;2024-03-02T05:38:13;2.53;;;2.10;;
51020;SDS011;38907;45.562;8.856;2024-03-02T05:43:15;1.98;;;1.77;;
51020;SDS011;38907;45.562;8.856;2024-03-02T05:48:17;2.15;;;1.98;;
51020;SDS011;38907;45.562;8.856;2024-03-02T05:53:20;4.28;;;3.17;;
51020;SDS011;38907;45.562;8.856;2024-03-02T05:58:22;4.35;;;3.30;;
51020;SDS011;38907;45.562;8.856;2024-03-02T06:03:33;3.75;;;3.33;;
51020;SDS011;38907;45.562;8.856;2024-03-02T06:08:37;4.75;;;3.13;;
51020;SDS011;38907;45.562;8.856;2024-03-02T06:13:39;4.72;;;2.90;;
51020;SDS011;38907;45.562;8.856;2024-03-02T06:18:41;3.15;;;2.85;;
51020;SDS011;38907;45.562;8.856;2024-03-02T06:23:44;4.88;;;3.25;;
51020;SDS011;38907;45.562;8.856;2024-03-02T06:28:46;7.93;;;4.55;;
51020;SDS011;38907;45.562;8.856;2024-03-02T06:33:48;4.82;;;4.28;;
51020;SDS011;38907;45.562;8.856;2024-03-02T06:38:51;7.68;;;4.95;;
51020;SDS011;38907;45.562;8.856;2024-03-02T06:43:53;9.00;;;7.53;;
51020;SDS011;38907;45.562;8.856;2024-03-02T06:48:59;10.05;;;7.55;;
51020;SDS011;38907;45.562;8.856;2024-03-02T06:54:03;11.45;;;9.80;;
51020;SDS011;38907;45.562;8.856;2024-03-02T06:59:05;10.95;;;9.85;;
51020;SDS011;38907;45.562;8.856;2024-03-02T07:04:07;10.48;;;9.20;;
51020;SDS011;38907;45.562;8.856;2024-03-02T07:09:10;10.35;;;8.52;;
51020;SDS011;38907;45.562;8.856;2024-03-02T07:14:12;10.60;;;9.38;;
51020;SDS011;38907;45.562;8.856;2024-03-02T07:19:14;10.43;;;8.55;;
51020;SDS011;38907;45.562;8.856;2024-03-02T07:24:17;12.18;;;10.52;;
51020;SDS011;38907;45.562;8.856;2024-03-02T07:29:19;25.63;;;18.25;;
51020;SDS011;38907;45.562;8.856;2024-03-02T07:34:21;20.73;;;16.48;;
51020;SDS011;38907;45.562;8.856;2024-03-02T07:39:24;20.10;;;15.18;;
51020;SDS011;38907;45.562;8.856;2024-03-02T07:44:26;17.15;;;14.63;;
51020;SDS011;38907;45.562;8.856;2024-03-02T07:49:28;18.02;;;16.13;;
51020;SDS011;38907;45.562;8.856;2024-03-02T07:54:31;21.63;;;16.98;;
51020;SDS011;38907;45.562;8.856;2024-03-02T07:59:33;20.55;;;18.30;;
51020;SDS011;38907;45.562;8.856;2024-03-02T08:04:35;20.95;;;17.05;;
51020;SDS011;38907;45.562;8.856;2024-03-02T08:09:38;21.17;;;18.48;;
51020;SDS011;38907;45.562;8.856;2024-03-02T08:14:41;23.23;;;18.73;;
51020;SDS011;38907;45.562;8.856;2024-03-02T08:19:43;21.70;;;17.83;;
51020;SDS011;38907;45.562;8.856;2024-03-02T08:24:47;19.33;;;16.90;;
51020;SDS011;38907;45.562;8.856;2024-03-02T08:29:49;19.10;;;16.13;;
51020;SDS011;38907;45.562;8.856;2024-03-02T08:34:50;17.23;;;13.95;;
51020;SDS011;38907;45.562;8.856;2024-03-02T08:39:54;8.80;;;7.90;;
51020;SDS011;38907;45.562;8.856;2024-03-02T08:44:56;6.40;;;5.75;;
51020;SDS011;38907;45.562;8.856;2024-03-02T08:49:58;5.67;;;5.10;;
51020;SDS011;38907;45.562;8.856;2024-03-02T08:55:02;5.35;;;4.68;;
51020;SDS011;38907;45.562;8.856;2024-03-02T09:00:04;6.18;;;5.57;;
51020;SDS011;38907;45.562;8.856;2024-03-02T09:05:07;4.70;;;4.30;;
51020;SDS011;38907;45.562;8.856;2024-03-02T09:10:11;4.57;;;4.18;;
51020;SDS011;38907;45.562;8.856;2024-03-02T09:15:13;4.50;;;4.10;;
51020;SDS011;38907;45.562;8.856;2024-03-02T09:20:15;3.83;;;3.53;;
51020;SDS011;38907;45.562;8.856;2024-03-02T09:25:18;6.40;;;5.18;;
51020;SDS011;38907;45.562;8.856;2024-03-02T09:30:20;9.73;;;6.20;;
51020;SDS011;38907;45.562;8.856;2024-03-02T09:35:22;8.05;;;6.40;;
51020;SDS011;38907;45.562;8.856;2024-03-02T09:40:25;6.70;;;6.00;;
51020;SDS011;38907;45.562;8.856;2024-03-02T09:45:27;6.03;;;5.30;;
51020;SDS011;38907;45.562;8.856;2024-03-02T09:50:31;4.80;;;4.13;;
51020;SDS011;38907;45.562;8.856;2024-03-02T09:55:34;4.22;;;3.72;;
51020;SDS011;38907;45.562;8.856;2024-03-02T10:00:36;6.82;;;4.00;;
51020;SDS011;38907;45.562;8.856;2024-03-02T10:05:38;4.97;;;4.50;;
51020;SDS011;38907;45.562;8.856;2024-03-02T10:10:41;2.75;;;2.55;;
51020;SDS011;38907;45.562;8.856;2024-03-02T10:15:44;3.50;;;2.42;;
51020;SDS011;38907;45.562;8.856;2024-03-02T10:25:49;3.60;;;3.30;;
51020;SDS011;38907;45.562;8.856;2024-03-02T10:30:51;5.20;;;4.80;;
51020;SDS011;38907;45.562;8.856;2024-03-02T10:35:53;5.07;;;4.68;;
51020;SDS011;38907;45.562;8.856;2024-03-02T10:40:57;5.07;;;4.68;;
51020;SDS011;38907;45.562;8.856;2024-03-02T10:45:59;6.25;;;5.60;;
51020;SDS011;38907;45.562;8.856;2024-03-02T10:51:01;6.65;;;6.00;;
51020;SDS011;38907;45.562;8.856;2024-03-02T10:56:05;6.72;;;6.13;;
51020;SDS011;38907;45.562;8.856;2024-03-02T11:01:10;8.82;;;7.88;;
51020;SDS011;38907;45.562;8.856;2024-03-02T11:06:13;7.43;;;6.72;;
51020;SDS011;38907;45.562;8.856;2024-03-02T11:11:19;8.27;;;7.45;;
51020;SDS011;38907;45.562;8.856;2024-03-02T11:16:30;9.80;;;8.15;;
51020;SDS011;38907;45.562;8.856;2024-03-02T11:21:35;13.52;;;9.27;;
51020;SDS011;38907;45.562;8.856;2024-03-02T11:26:39;11.80;;;9.37;;
51020;SDS011;38907;45.562;8.856;2024-03-02T11:31:59;11.13;;;8.93;;
51020;SDS011;38907;45.562;8.856;2024-03-02T11:37:02;13.63;;;9.15;;
51020;SDS011;38907;45.562;8.856;2024-03-02T11:42:06;11.82;;;9.77;;
51020;SDS011;38907;45.562;8.856;2024-03-02T11:47:10;8.95;;;8.05;;
51020;SDS011;38907;45.562;8.856;2024-03-02T11:52:15;8.60;;;7.68;;
51020;SDS011;38907;45.562;8.856;2024-03-02T12:02:22;8.77;;;7.85;;
51020;SDS011;38907;45.562;8.856;2024-03-02T12:07:24;8.43;;;6.78;;
51020;SDS011;38907;45.562;8.856;2024-03-02T12:12:27;7.30;;;6.60;;
51020;SDS011;38907;45.562;8.856;2024-03-02T12:17:29;8.27;;;7.47;;
51020;SDS011;38907;45.562;8.856;2024-03-02T12:22:31;8.02;;;7.28;;
51020;SDS011;38907;45.562;8.856;2024-03-02T12:27:34;9.05;;;8.23;;
51020;SDS011;38907;45.562;8.856;2024-03-02T12:32:36;11.40;;;8.90;;
51020;SDS011;38907;45.562;8.856;2024-03-02T12:37:42;10.63;;;9.60;;
51020;SDS011;38907;45.562;8.856;2024-03-02T12:42:46;10.70;;;7.95;;
51020;SDS011;38907;45.562;8.856;2024-03-02T12:52:53;10.15;;;8.32;;
51020;SDS011;38907;45.562;8.856;2024-03-02T12:57:56;8.73;;;7.82;;
51020;SDS011;38907;45.562;8.856;2024-03-02T13:02:59;10.05;;;8.05;;
51020;SDS011;38907;45.562;8.856;2024-03-02T13:08:03;9.35;;;7.50;;
51020;SDS011;38907;45.562;8.856;2024-03-02T13:13:08;9.32;;;8.52;;
51020;SDS011;38907;45.562;8.856;2024-03-02T13:18:10;10.32;;;9.32;;
51020;SDS011;38907;45.562;8.856;2024-03-02T13:23:12;12.15;;;11.05;;
51020;SDS011;38907;45.562;8.856;2024-03-02T13:28:15;11.82;;;10.73;;
51020;SDS011;38907;45.562;8.856;2024-03-02T13:38:22;11.27;;;10.27;;
51020;SDS011;38907;45.562;8.856;2024-03-02T13:43:25;12.43;;;10.15;;
51020;SDS011;38907;45.562;8.856;2024-03-02T13:48:28;12.13;;;10.93;;
51020;SDS011;38907;45.562;8.856;2024-03-02T13:53:30;12.55;;;11.25;;
51020;SDS011;38907;45.562;8.856;2024-03-02T13:58:34;12.30;;;11.05;;
51020;SDS011;38907;45.562;8.856;2024-03-02T14:03:37;12.80;;;11.50;;
51020;SDS011;38907;45.562;8.856;2024-03-02T14:08:39;10.57;;;9.57;;
51020;SDS011;38907;45.562;8.856;2024-03-02T14:13:46;13.20;;;11.18;;
51020;SDS011;38907;45.562;8.856;2024-03-02T14:18:53;11.43;;;10.40;;
51020;SDS011;38907;45.562;8.856;2024-03-02T14:23:55;12.32;;;10.65;;
51020;SDS011;38907;45.562;8.856;2024-03-02T14:28:58;13.18;;;11.88;;
51020;SDS011;38907;45.562;8.856;2024-03-02T14:34:02;11.40;;;10.32;;
51020;SDS011;38907;45.562;8.856;2024-03-02T14:39:03;10.45;;;9.13;;
51020;SDS011;38907;45.562;8.856;2024-03-02T14:44:10;8.55;;;7.75;;
51020;SDS011;38907;45.562;8.856;2024-03-02T14:49:12;8.60;;;7.78;;
51020;SDS011;38907;45.562;8.856;2024-03-02T14:54:14;12.43;;;8.27;;
51020;SDS011;38907;45.562;8.856;2024-03-02T14:59:17;10.23;;;8.15;;
51020;SDS011;38907;45.562;8.856;2024-03-02T15:04:19;11.38;;;10.25;;
51020;SDS011;38907;45.562;8.856;2024-03-02T15:09:21;11.65;;;9.70;;
51020;SDS011;38907;45.562;8.856;2024-03-02T15:14:24;10.30;;;9.30;;
51020;SDS011;38907;45.562;8.856;2024-03-02T15:19:26;11.25;;;10.15;;
51020;SDS011;38907;45.562;8.856;2024-03-02T15:24:28;12.50;;;11.30;;
51020;SDS011;38907;45.562;8.856;2024-03-02T15:29:31;12.90;;;11.07;;
51020;SDS011;38907;45.562;8.856;2024-03-02T15:34:33;13.82;;;12.32;;
51020;SDS011;38907;45.562;8.856;2024-03-02T15:39:35;22.33;;;18.33;;
51020;SDS011;38907;45.562;8.856;2024-03-02T15:44:38;12.93;;;11.52;;
51020;SDS011;38907;45.562;8.856;2024-03-02T15:49:41;14.70;;;12.63;;
51020;SDS011;38907;45.562;8.856;2024-03-02T15:54:43;15.80;;;13.50;;
51020;SDS011;38907;45.562;8.856;2024-03-02T15:59:46;12.18;;;10.98;;
51020;SDS011;38907;45.562;8.856;2024-03-02T16:04:47;12.02;;;9.80;;
51020;SDS011;38907;45.562;8.856;2024-03-02T16:09:49;16.13;;;14.13;;
51020;SDS011;38907;45.562;8.856;2024-03-02T16:14:52;17.08;;;14.05;;
51020;SDS011;38907;45.562;8.856;2024-03-02T16:19:54;19.50;;;17.40;;
51020;SDS011;38907;45.562;8.856;2024-03-02T16:24:58;17.95;;;16.05;;
51020;SDS011;38907;45.562;8.856;2024-03-02T16:30:01;20.88;;;17.65;;
51020;SDS011;38907;45.562;8.856;2024-03-02T16:35:04;21.63;;;18.75;;
51020;SDS011;38907;45.562;8.856;2024-03-02T16:40:06;27.70;;;20.23;;
51020;SDS011;38907;45.562;8.856;2024-03-02T16:45:10;21.83;;;19.60;;
51020;SDS011;38907;45.562;8.856;2024-03-02T16:50:12;24.35;;;20.50;;
51020;SDS011;38907;45.562;8.856;2024-03-02T16:55:16;30.85;;;22.73;;
51020;SDS011;38907;45.562;8.856;2024-03-02T17:00:20;22.40;;;18.97;;
51020;SDS011;38907;45.562;8.856;2024-03-02T17:05:23;24.75;;;21.15;;
51020;SDS011;38907;45.562;8.856;2024-03-02T17:10:26;22.63;;;19.77;;
51020;SDS011;38907;45.562;8.856;2024-03-02T17:15:29;20.52;;;18.40;;
51020;SDS011;38907;45.562;8.856;2024-03-02T17:20:31;20.02;;;17.92;;
51020;SDS011;38907;45.562;8.856;2024-03-02T17:25:33;19.75;;;17.63;;
51020;SDS011;38907;45.562;8.856;2024-03-02T17:30:36;18.27;;;16.38;;
51020;SDS011;38907;45.562;8.856;2024-03-02T17:35:38;19.17;;;16.98;;
51020;SDS011;38907;45.562;8.856;2024-03-02T17:40:39;19.42;;;17.13;;
51020;SDS011;38907;45.562;8.856;2024-03-02T17:45:43;21.83;;;17.55;;
51020;SDS011;38907;45.562;8.856;2024-03-02T17:50:45;22.73;;;19.92;;
51020;SDS011;38907;45.562;8.856;2024-03-02T17:55:46;23.15;;;19.75;;
51020;SDS011;38907;45.562;8.856;2024-03-02T18:00:50;22.55;;;20.15;;
51020;SDS011;38907;45.562;8.856;2024-03-02T18:05:51;28.75;;;21.90;;
51020;SDS011;38907;45.562;8.856;2024-03-02T18:10:53;22.27;;;19.30;;
51020;SDS011;38907;45.562;8.856;2024-03-02T18:15:57;24.27;;;20.33;;
51020;SDS011;38907;45.562;8.856;2024-03-02T18:20:59;22.20;;;19.85;;
51020;SDS011;38907;45.562;8.856;2024-03-02T18:26:02;25.42;;;20.80;;
51020;SDS011;38907;45.562;8.856;2024-03-02T18:31:06;26.90;;;21.05;;
51020;SDS011;38907;45.562;8.856;2024-03-02T18:36:08;28.95;;;21.52;;
51020;SDS011;38907;45.562;8.856;2024-03-02T18:41:09;28.83;;;22.40;;
51020;SDS011;38907;45.562;8.856;2024-03-02T18:46:13;33.97;;;26.75;;
51020;SDS011;38907;45.562;8.856;2024-03-02T18:51:14;27.88;;;24.08;;
51020;SDS011;38907;45.562;8.856;2024-03-02T18:56:16;30.27;;;23.42;;
51020;SDS011;38907;45.562;8.856;2024-03-02T19:01:20;27.10;;;23.80;;
51020;SDS011;38907;45.562;8.856;2024-03-02T19:06:21;30.45;;;25.85;;
51020;SDS011;38907;45.562;8.856;2024-03-02T19:11:23;34.80;;;27.60;;
51020;SDS011;38907;45.562;8.856;2024-03-02T19:16:27;32.17;;;26.67;;
51020;SDS011;38907;45.562;8.856;2024-03-02T19:21:29;29.58;;;26.13;;
51020;SDS011;38907;45.562;8.856;2024-03-02T19:26:32;32.28;;;26.17;;
51020;SDS011;38907;45.562;8.856;2024-03-02T19:31:35;28.67;;;24.48;;
51020;SDS011;38907;45.562;8.856;2024-03-02T19:36:37;31.92;;;26.25;;
51020;SDS011;38907;45.562;8.856;2024-03-02T19:41:38;34.25;;;26.13;;
51020;SDS011;38907;45.562;8.856;2024-03-02T19:46:42;30.85;;;26.77;;
51020;SDS011;38907;45.562;8.856;2024-03-02T19:51:43;33.80;;;26.05;;
51020;SDS011;38907;45.562;8.856;2024-03-02T19:56:45;28.15;;;24.75;;
51020;SDS011;38907;45.562;8.856;2024-03-02T20:01:49;28.85;;;24.35;;
51020;SDS011;38907;45.562;8.856;2024-03-02T20:06:51;31.63;;;26.15;;
51020;SDS011;38907;45.562;8.856;2024-03-02T20:11:53;32.28;;;27.27;;
51020;SDS011;38907;45.562;8.856;2024-03-02T20:16:56;30.23;;;26.77;;
51020;SDS011;38907;45.562;8.856;2024-03-02T20:21:58;31.40;;;27.40;;
51020;SDS011;38907;45.562;8.856;2024-03-02T20:27:00;31.42;;;26.27;;
51020;SDS011;38907;45.562;8.856;2024-03-02T20:32:06;30.40;;;25.73;;
51020;SDS011;38907;45.562;8.856;2024-03-02T20:37:08;31.45;;;27.40;;
51020;SDS011;38907;45.562;8.856;2024-03-02T20:42:10;29.50;;;25.37;;
51020;SDS011;38907;45.562;8.856;2024-03-02T20:47:14;29.52;;;25.85;;
51020;SDS011;38907;45.562;8.856;2024-03-02T20:52:16;28.98;;;25.67;;
51020;SDS011;38907;45.562;8.856;2024-03-02T20:57:19;30.20;;;26.58;;
51020;SDS011;38907;45.562;8.856;2024-03-02T21:02:22;28.48;;;24.73;;
51020;SDS011;38907;45.562;8.856;2024-03-02T21:07:24;32.05;;;26.48;;
51020;SDS011;38907;45.562;8.856;2024-03-02T21:12:26;32.65;;;29.15;;
51020;SDS011;38907;45.562;8.856;2024-03-02T21:17:29;31.92;;;28.60;;
51020;SDS011;38907;45.562;8.856;2024-03-02T21:27:33;29.58;;;26.27;;
51020;SDS011;38907;45.562;8.856;2024-03-02T21:32:36;27.90;;;25.00;;
51020;SDS011;38907;45.562;8.856;2024-03-02T21:37:38;27.83;;;24.65;;
51020;SDS011;38907;45.562;8.856;2024-03-02T21:42:40;28.80;;;25.80;;
51020;SDS011;38907;45.562;8.856;2024-03-02T21:47:43;28.17;;;25.05;;
51020;SDS011;38907;45.562;8.856;2024-03-02T21:57:49;25.08;;;22.05;;
51020;SDS011;38907;45.562;8.856;2024-03-02T22:02:55;25.05;;;22.48;;
51020;SDS011;38907;45.562;8.856;2024-03-02T22:07:57;24.73;;;22.15;;
51020;SDS011;38907;45.562;8.856;2024-03-02T22:12:59;26.77;;;23.20;;
51020;SDS011;38907;45.562;8.856;2024-03-02T22:18:02;33.42;;;24.60;;
51020;SDS011;38907;45.562;8.856;2024-03-02T22:23:04;27.25;;;23.48;;
51020;SDS011;38907;45.562;8.856;2024-03-02T22:28:06;26.02;;;23.23;;
51020;SDS011;38907;45.562;8.856;2024-03-02T22:33:09;26.05;;;22.05;;
51020;SDS011;38907;45.562;8.856;2024-03-02T22:43:14;27.48;;;23.58;;
51020;SDS011;38907;45.562;8.856;2024-03-02T22:48:18;26.65;;;22.65;;
51020;SDS011;38907;45.562;8.856;2024-03-02T22:53:19;24.58;;;21.98;;
51020;SDS011;38907;45.562;8.856;2024-03-02T22:58:21;25.25;;;22.55;;
51020;SDS011;38907;45.562;8.856;2024-03-02T23:03:24;27.10;;;22.85;;
51020;SDS011;38907;45.562;8.856;2024-03-02T23:08:26;25.65;;;22.95;;
51020;SDS011;38907;45.562;8.856;2024-03-02T23:13:28;24.80;;;20.85;;
51020;SDS011;38907;45.562;8.856;2024-03-02T23:18:31;25.80;;;22.65;;
51020;SDS011;38907;45.562;8.856;2024-03-02T23:23:33;28.80;;;25.35;;
51020;SDS011;38907;45.562;8.856;2024-03-02T23:28:35;26.88;;;24.05;;
51020;SDS011;38907;45.562;8.856;2024-03-02T23:33:38;27.65;;;24.38;;
51020;SDS011;38907;45.562;8.856;2024-03-02T23:38:40;26.02;;;23.08;;
51020;SDS011;38907;45.562;8.856;2024-03-02T23:43:41;26.52;;;22.77;;
51020;SDS011;38907;45.562;8.856;2024-03-02T23:48:45;28.30;;;22.15;;
51020;SDS011;38907;45.562;8.856;2024-03-02T23:53:46;26.15;;;23.23;;
51020;SDS011;38907;45.562;8.856;2024-03-02T23:58:49;26.58;;;22.63;;
